Time;durP1;ratioP1;P1;durP2;ratioP2;P2;SDS_P1;SDS_P2;PMS_P1;PMS_P2;Temp;Humidity;BMP_temperature;BMP_pressure;BME280_temperature;BME280_humidity;BME280_pressure;Samples;Min_cycle;Max_cycle;Signal;HPM_P1;HPM_P2
2023/11/01 01:40:23;;;;;;;9.27;3.42;;;;;;;;;;6037042;23;20338;-91
2023/11/01 01:43:30;;;;;;;7.57;2.35;;;;;;;;;;6054027;23;20195;-94
2023/11/01 01:46:35;;;;;;;6.03;1.30;;;;;;;;;;6040734;23;20522;-93
2023/11/01 01:49:42;;;;;;;3.10;1.40;;;;;;;;;;6046028;23;20207;-92
2023/11/01 01:52:47;;;;;;;3.83;1.50;;;;;;;;;;6054673;23;20171;-91
2023/11/01 01:55:54;;;;;;;5.68;1.45;;;;;;;;;;6053029;23;20183;-91
2023/11/01 01:59:01;;;;;;;2.63;1.42;;;;;;;;;;6054103;23;20160;-93
2023/11/01 02:02:09;;;;;;;2.03;1.30;;;;;;;;;;6071990;23;20168;-94
2023/11/01 02:05:15;;;;;;;5.28;1.73;;;;;;;;;;6073765;23;20457;-93
2023/11/01 02:08:20;;;;;;;4.32;1.95;;;;;;;;;;6069231;23;20170;-92
2023/11/01 02:11:28;;;;;;;4.03;2.17;;;;;;;;;;6072436;23;20176;-90
2023/11/01 02:14:37;;;;;;;2.63;1.55;;;;;;;;;;6074567;23;20167;-90
2023/11/01 02:17:42;;;;;;;5.55;2.38;;;;;;;;;;6057909;23;20175;-93
2023/11/01 02:20:51;;;;;;;8.10;2.80;;;;;;;;;;6067084;23;20174;-92
2023/11/01 02:23:58;;;;;;;5.88;2.60;;;;;;;;;;6052652;23;20171;-92
2023/11/01 02:27:04;;;;;;;2.65;1.23;;;;;;;;;;6067839;23;20244;-93
2023/11/01 02:30:16;;;;;;;5.60;1.10;;;;;;;;;;6051729;23;20200;-92
2023/11/01 02:33:21;;;;;;;8.48;3.83;;;;;;;;;;6055865;23;20251;-92
2023/11/01 02:39:48;;;;;;;1.83;1.10;;;;;;;;;;6058182;23;20187;-93
2023/11/01 02:42:55;;;;;;;4.50;1.10;;;;;;;;;;6069772;23;20191;-90
2023/11/01 02:46:00;;;;;;;2.13;1.13;;;;;;;;;;6054215;23;20183;-91
2023/11/01 02:49:05;;;;;;;2.30;1.17;;;;;;;;;;6054636;23;20171;-93
2023/11/01 02:52:12;;;;;;;1.73;1.00;;;;;;;;;;6054277;23;20168;-91
2023/11/01 02:55:18;;;;;;;2.60;1.08;;;;;;;;;;6054409;23;20171;-92
2023/11/01 02:58:25;;;;;;;1.98;1.00;;;;;;;;;;6052911;23;20171;-94
2023/11/01 03:01:31;;;;;;;5.88;1.50;;;;;;;;;;6069424;23;20171;-93
2023/11/01 03:04:36;;;;;;;3.35;1.50;;;;;;;;;;6052725;23;20156;-90
2023/11/01 03:07:41;;;;;;;2.53;1.42;;;;;;;;;;6056237;23;20168;-90
2023/11/01 03:10:48;;;;;;;2.65;1.40;;;;;;;;;;6053976;23;20255;-90
2023/11/01 03:13:53;;;;;;;2.47;1.00;;;;;;;;;;6069265;23;20174;-94
2023/11/01 03:16:58;;;;;;;3.33;1.10;;;;;;;;;;6054020;23;20183;-93
2023/11/01 03:20:05;;;;;;;4.47;1.10;;;;;;;;;;6068920;23;20175;-92
2023/11/01 03:23:10;;;;;;;3.58;1.00;;;;;;;;;;6069178;23;20230;-92
2023/11/01 03:26:17;;;;;;;0.80;0.80;;;;;;;;;;6068444;23;20186;-93
2023/11/01 03:29:22;;;;;;;3.50;1.10;;;;;;;;;;6052679;23;20175;-91
2023/11/01 03:32:27;;;;;;;2.15;1.10;;;;;;;;;;6068045;23;20171;-91
2023/11/01 03:35:33;;;;;;;1.95;0.90;;;;;;;;;;6068453;23;20228;-90
2023/11/01 03:38:38;;;;;;;4.85;1.08;;;;;;;;;;6051204;23;20216;-91
2023/11/01 03:41:44;;;;;;;2.92;1.13;;;;;;;;;;6052055;23;20181;-93
2023/11/01 03:44:49;;;;;;;5.63;1.33;;;;;;;;;;6068925;23;20163;-92
2023/11/01 03:47:55;;;;;;;5.30;1.10;;;;;;;;;;6050146;23;20171;-91
2023/11/01 03:51:00;;;;;;;4.10;0.90;;;;;;;;;;6052811;23;20188;-91
2023/11/01 03:54:05;;;;;;;6.22;1.00;;;;;;;;;;6068348;23;20175;-91
2023/11/01 03:57:12;;;;;;;5.93;1.10;;;;;;;;;;6051353;23;20198;-92
2023/11/01 04:00:21;;;;;;;1.02;0.80;;;;;;;;;;6052166;23;20180;-93
2023/11/01 04:03:26;;;;;;;1.80;1.05;;;;;;;;;;6051554;23;20171;-91
2023/11/01 04:06:31;;;;;;;3.60;1.00;;;;;;;;;;6067615;23;20179;-91
2023/11/01 04:09:36;;;;;;;1.60;0.93;;;;;;;;;;6067870;23;20175;-93
2023/11/01 04:12:43;;;;;;;2.33;1.13;;;;;;;;;;6067074;23;20171;-92
2023/11/01 04:15:48;;;;;;;2.47;1.08;;;;;;;;;;6070987;23;20167;-88
2023/11/01 04:18:54;;;;;;;2.47;0.90;;;;;;;;;;6056858;23;20171;-91
2023/11/01 04:21:59;;;;;;;2.38;1.10;;;;;;;;;;6052574;23;20179;-91
2023/11/01 04:25:06;;;;;;;2.83;1.40;;;;;;;;;;6070597;23;20163;-92
2023/11/01 04:28:14;;;;;;;3.30;1.40;;;;;;;;;;6072459;23;20170;-91
2023/11/01 04:31:24;;;;;;;5.68;1.85;;;;;;;;;;6073221;23;20167;-91
2023/11/01 04:34:29;;;;;;;3.72;2.20;;;;;;;;;;6052869;23;20171;-92
2023/11/01 04:37:37;;;;;;;4.53;2.60;;;;;;;;;;6067904;23;20202;-89
2023/11/01 04:40:42;;;;;;;5.43;2.30;;;;;;;;;;6063829;23;20246;-92
2023/11/01 04:43:48;;;;;;;3.75;2.58;;;;;;;;;;6065837;23;20263;-93
2023/11/01 04:46:53;;;;;;;3.53;2.08;;;;;;;;;;6049123;23;20174;-92
2023/11/01 04:49:58;;;;;;;3.53;2.30;;;;;;;;;;6067544;23;20583;-89
2023/11/01 04:53:03;;;;;;;5.05;2.40;;;;;;;;;;6049056;23;20614;-91
2023/11/01 04:56:09;;;;;;;5.10;2.42;;;;;;;;;;6051842;23;20167;-91
2023/11/01 04:59:16;;;;;;;3.80;2.20;;;;;;;;;;6052920;23;20179;-90
2023/11/01 05:02:21;;;;;;;3.72;2.47;;;;;;;;;;6066172;23;20175;-93
2023/11/01 05:05:27;;;;;;;4.35;2.38;;;;;;;;;;6067803;23;20171;-92
2023/11/01 05:08:33;;;;;;;4.47;2.53;;;;;;;;;;6050194;23;20217;-92
2023/11/01 05:11:39;;;;;;;6.03;2.65;;;;;;;;;;6067323;23;20199;-92
2023/11/01 05:14:45;;;;;;;4.07;2.40;;;;;;;;;;6070727;23;20188;-92
2023/11/01 05:17:51;;;;;;;4.07;2.60;;;;;;;;;;6053704;23;20239;-93
2023/11/01 05:20:56;;;;;;;7.38;2.60;;;;;;;;;;6054921;23;20183;-92
2023/11/01 05:24:01;;;;;;;4.40;2.70;;;;;;;;;;6070781;23;20171;-92
2023/11/01 05:27:07;;;;;;;4.13;2.67;;;;;;;;;;6070202;23;20187;-93
2023/11/01 05:30:15;;;;;;;4.20;2.70;;;;;;;;;;6069217;23;20228;-90
2023/11/01 05:33:20;;;;;;;5.10;2.60;;;;;;;;;;6053549;23;20300;-90
2023/11/01 05:36:26;;;;;;;6.40;2.65;;;;;;;;;;6070873;23;20208;-92
2023/11/01 05:39:31;;;;;;;6.30;3.20;;;;;;;;;;6055936;23;20208;-90
2023/11/01 05:42:38;;;;;;;4.40;2.83;;;;;;;;;;6055348;23;20198;-93
2023/11/01 05:45:46;;;;;;;5.20;3.53;;;;;;;;;;6055958;23;20187;-94
2023/11/01 05:48:51;;;;;;;10.63;3.40;;;;;;;;;;6073758;23;20175;-92
2023/11/01 05:51:56;;;;;;;6.53;3.35;;;;;;;;;;6059756;23;20168;-90
2023/11/01 05:55:02;;;;;;;7.65;3.40;;;;;;;;;;6074374;23;20163;-92
2023/11/01 05:58:07;;;;;;;4.88;3.17;;;;;;;;;;6073182;23;20316;-91
2023/11/01 06:01:14;;;;;;;4.80;2.95;;;;;;;;;;6071080;23;20158;-93
2023/11/01 06:04:20;;;;;;;6.97;3.40;;;;;;;;;;6068368;23;20176;-91
2023/11/01 06:07:26;;;;;;;7.60;3.00;;;;;;;;;;6068462;23;20179;-90
2023/11/01 06:10:31;;;;;;;6.40;2.55;;;;;;;;;;6068443;23;20180;-91
2023/11/01 06:13:36;;;;;;;5.07;2.78;;;;;;;;;;6068102;23;20171;-89
2023/11/01 06:16:44;;;;;;;9.77;2.08;;;;;;;;;;6069089;23;20195;-92
2023/11/01 06:19:49;;;;;;;4.70;2.45;;;;;;;;;;6065295;23;20175;-89
2023/11/01 06:22:55;;;;;;;4.53;2.50;;;;;;;;;;6067437;23;20226;-90
2023/11/01 06:26:00;;;;;;;8.80;2.38;;;;;;;;;;6068276;23;20209;-91
2023/11/01 06:29:05;;;;;;;5.47;2.67;;;;;;;;;;6070665;23;20171;-91
2023/11/01 06:32:13;;;;;;;8.07;3.15;;;;;;;;;;6071376;23;20171;-90
2023/11/01 06:35:18;;;;;;;7.90;2.67;;;;;;;;;;6054344;23;20220;-91
2023/11/01 06:38:24;;;;;;;4.55;2.60;;;;;;;;;;6055925;23;20737;-93
2023/11/01 06:41:30;;;;;;;3.97;2.47;;;;;;;;;;6056745;23;20246;-92
2023/11/01 06:44:35;;;;;;;4.88;2.60;;;;;;;;;;6071780;23;20191;-93
2023/11/01 06:47:42;;;;;;;5.43;2.60;;;;;;;;;;6050755;23;20188;-93
2023/11/01 06:50:46;;;;;;;5.63;2.85;;;;;;;;;;6054632;23;20175;-92
2023/11/01 06:53:52;;;;;;;4.57;2.60;;;;;;;;;;6070842;23;20235;-92
2023/11/01 06:56:57;;;;;;;7.75;2.78;;;;;;;;;;6055254;23;20638;-93
2023/11/01 07:00:04;;;;;;;11.32;3.05;;;;;;;;;;6070848;23;20216;-92
2023/11/01 07:03:11;;;;;;;4.20;2.75;;;;;;;;;;6072041;23;20220;-92
2023/11/01 07:06:16;;;;;;;5.50;3.22;;;;;;;;;;6059746;23;20201;-92
2023/11/01 07:09:24;;;;;;;8.80;4.25;;;;;;;;;;6071998;23;20166;-93
2023/11/01 07:12:28;;;;;;;8.50;3.63;;;;;;;;;;6053376;23;20448;-91
2023/11/01 07:15:34;;;;;;;7.30;3.63;;;;;;;;;;6056034;23;20239;-92
2023/11/01 07:18:41;;;;;;;5.95;2.95;;;;;;;;;;6054787;23;20252;-92
2023/11/01 07:21:46;;;;;;;5.80;3.50;;;;;;;;;;6071246;23;20190;-90
2023/11/01 07:28:15;;;;;;;11.07;3.03;;;;;;;;;;6053637;23;20172;-92
2023/11/01 07:31:20;;;;;;;5.38;2.90;;;;;;;;;;6071572;23;20182;-93
2023/11/01 07:34:27;;;;;;;4.13;2.63;;;;;;;;;;6069635;23;20159;-91
2023/11/01 07:37:32;;;;;;;7.15;2.75;;;;;;;;;;6069536;23;20190;-93
2023/11/01 07:40:37;;;;;;;8.35;3.70;;;;;;;;;;6069879;23;20196;-92
2023/11/01 07:43:42;;;;;;;32.05;16.45;;;;;;;;;;6070088;23;20179;-92
2023/11/01 07:46:48;;;;;;;8.10;4.90;;;;;;;;;;6058225;23;20159;-91
2023/11/01 07:50:06;;;;;;;5.70;3.72;;;;;;;;;;6052185;23;20705;-91
2023/11/01 07:53:12;;;;;;;5.40;3.10;;;;;;;;;;6052838;23;20163;-93
2023/11/01 07:56:17;;;;;;;6.32;3.05;;;;;;;;;;6053182;23;20171;-90
2023/11/01 07:59:23;;;;;;;4.78;2.10;;;;;;;;;;6053312;23;20172;-90
2023/11/01 08:02:28;;;;;;;3.85;2.22;;;;;;;;;;6071161;23;20510;-92
2023/11/01 08:05:35;;;;;;;3.85;2.58;;;;;;;;;;6053469;23;20208;-91
2023/11/01 08:08:40;;;;;;;5.43;3.65;;;;;;;;;;6068442;23;20174;-91
2023/11/01 08:11:45;;;;;;;5.32;2.20;;;;;;;;;;6070242;23;20220;-93
2023/11/01 08:14:51;;;;;;;6.93;1.92;;;;;;;;;;6071875;23;20171;-91
2023/11/01 08:17:57;;;;;;;5.45;2.53;;;;;;;;;;6056547;23;20252;-91
2023/11/01 08:21:25;;;;;;;1.95;1.50;;;;;;;;;;6074280;23;20187;-90
2023/11/01 08:24:32;;;;;;;4.30;1.83;;;;;;;;;;6051910;23;20175;-92
2023/11/01 08:27:39;;;;;;;5.30;1.65;;;;;;;;;;6071877;23;20248;-92
2023/11/01 08:30:45;;;;;;;1.92;1.50;;;;;;;;;;6071334;23;20192;-93
2023/11/01 08:33:51;;;;;;;4.13;2.25;;;;;;;;;;6072292;23;20212;-92
2023/11/01 08:36:56;;;;;;;1.38;1.20;;;;;;;;;;6055018;23;20183;-94
2023/11/01 08:40:04;;;;;;;3.53;1.80;;;;;;;;;;6073017;23;20166;-93
2023/11/01 08:43:09;;;;;;;1.52;1.00;;;;;;;;;;6052653;23;20245;-92
2023/11/01 08:46:15;;;;;;;2.30;1.00;;;;;;;;;;6071720;23;20228;-91
2023/11/01 08:49:20;;;;;;;3.08;0.98;;;;;;;;;;6051926;23;20175;-92
2023/11/01 08:52:25;;;;;;;1.10;0.80;;;;;;;;;;6071646;23;20178;-91
2023/11/01 08:55:31;;;;;;;2.97;1.38;;;;;;;;;;6053494;23;20175;-91
2023/11/01 08:58:36;;;;;;;2.20;1.00;;;;;;;;;;6070747;23;20311;-92
2023/11/01 09:01:43;;;;;;;2.53;1.00;;;;;;;;;;6072567;23;20224;-93
2023/11/01 09:04:49;;;;;;;2.38;1.00;;;;;;;;;;6072591;23;20176;-91
2023/11/01 09:07:54;;;;;;;4.68;1.20;;;;;;;;;;6071840;23;20183;-92
2023/11/01 09:11:02;;;;;;;3.42;1.10;;;;;;;;;;6054017;23;20223;-91
2023/11/01 09:14:08;;;;;;;2.30;1.00;;;;;;;;;;6071145;23;20214;-90
2023/11/01 09:17:15;;;;;;;1.38;0.77;;;;;;;;;;6070357;23;20182;-91
2023/11/01 09:20:20;;;;;;;2.63;0.90;;;;;;;;;;6068954;23;20205;-91
2023/11/01 09:23:26;;;;;;;2.03;0.93;;;;;;;;;;6052796;23;20183;-94
2023/11/01 09:26:32;;;;;;;1.65;0.90;;;;;;;;;;6069047;23;20174;-91
2023/11/01 09:29:37;;;;;;;1.27;0.88;;;;;;;;;;6053592;23;20179;-92
2023/11/01 09:32:42;;;;;;;3.50;0.88;;;;;;;;;;6052854;23;20171;-94
2023/11/01 09:35:48;;;;;;;1.08;0.50;;;;;;;;;;6053057;23;20179;-93
2023/11/01 09:38:54;;;;;;;1.75;0.80;;;;;;;;;;6070256;23;20195;-92
2023/11/01 09:42:04;;;;;;;1.83;0.80;;;;;;;;;;6070667;23;20195;-91
2023/11/01 09:45:10;;;;;;;3.08;0.90;;;;;;;;;;6054217;23;20171;-91
2023/11/01 09:48:20;;;;;;;3.80;0.93;;;;;;;;;;6071772;23;20235;-90
2023/11/01 09:51:26;;;;;;;1.48;0.70;;;;;;;;;;6059295;23;20174;-93
2023/11/01 09:54:32;;;;;;;5.55;0.93;;;;;;;;;;6057335;23;20175;-92
2023/11/01 09:57:40;;;;;;;1.85;0.80;;;;;;;;;;6074818;23;20194;-92
2023/11/01 10:00:47;;;;;;;4.50;0.85;;;;;;;;;;6058475;23;20208;-92
2023/11/01 10:03:52;;;;;;;1.55;0.70;;;;;;;;;;6057291;23;20180;-92
2023/11/01 10:06:58;;;;;;;3.95;0.73;;;;;;;;;;6077460;23;20163;-90
2023/11/01 10:10:09;;;;;;;2.60;0.70;;;;;;;;;;6059804;23;20176;-90
2023/11/01 10:13:17;;;;;;;1.48;0.68;;;;;;;;;;6074137;23;20188;-90
2023/11/01 10:16:23;;;;;;;2.00;0.52;;;;;;;;;;6074052;23;20172;-92
2023/11/01 10:19:29;;;;;;;1.58;0.70;;;;;;;;;;6070529;23;20198;-90
2023/11/01 10:22:35;;;;;;;2.40;0.90;;;;;;;;;;6071219;23;20159;-91
2023/11/01 10:25:41;;;;;;;5.18;2.83;;;;;;;;;;6073091;23;20245;-93
2023/11/01 10:28:57;;;;;;;1.60;0.75;;;;;;;;;;6074334;23;20175;-91
2023/11/01 10:32:03;;;;;;;1.85;0.60;;;;;;;;;;6072963;23;20167;-90
2023/11/01 10:35:13;;;;;;;1.85;0.60;;;;;;;;;;6055736;23;20239;-91
2023/11/01 10:38:19;;;;;;;1.25;0.60;;;;;;;;;;6071811;23;20513;-91
2023/11/01 10:41:26;;;;;;;0.57;0.57;;;;;;;;;;6072052;23;20658;-90
2023/11/01 10:44:34;;;;;;;2.05;0.50;;;;;;;;;;6071509;23;20175;-94
2023/11/01 10:47:40;;;;;;;3.08;0.80;;;;;;;;;;6070150;23;20171;-91
2023/11/01 10:50:46;;;;;;;0.93;0.70;;;;;;;;;;6072308;23;20249;-91
2023/11/01 10:53:52;;;;;;;4.97;0.60;;;;;;;;;;6057250;23;20182;-93
2023/11/01 10:57:05;;;;;;;0.95;0.60;;;;;;;;;;6072371;23;20623;-90
2023/11/01 11:00:17;;;;;;;1.50;0.80;;;;;;;;;;6071342;23;20171;-92
2023/11/01 11:03:28;;;;;;;1.25;0.60;;;;;;;;;;6076775;23;20249;-91
2023/11/01 11:06:36;;;;;;;1.17;0.60;;;;;;;;;;6071933;23;20175;-93
2023/11/01 11:09:42;;;;;;;1.25;0.60;;;;;;;;;;6069538;23;20172;-93
2023/11/01 11:12:52;;;;;;;2.05;0.75;;;;;;;;;;6056770;23;20166;-92
2023/11/01 11:16:06;;;;;;;1.70;0.80;;;;;;;;;;6072286;23;20616;-89
2023/11/01 11:19:15;;;;;;;2.28;0.70;;;;;;;;;;6055006;23;20232;-93
2023/11/01 11:22:27;;;;;;;4.68;0.70;;;;;;;;;;6071674;23;20230;-91
2023/11/01 11:25:49;;;;;;;1.60;0.70;;;;;;;;;;6072565;23;20194;-92
2023/11/01 11:28:54;;;;;;;2.40;0.57;;;;;;;;;;6069311;23;20183;-92
2023/11/01 11:32:06;;;;;;;2.38;0.70;;;;;;;;;;6070676;23;20159;-91
2023/11/01 11:35:23;;;;;;;2.53;0.50;;;;;;;;;;6071558;23;20179;-91
2023/11/01 11:38:33;;;;;;;1.83;0.77;;;;;;;;;;6069988;23;20539;-92
2023/11/01 11:41:46;;;;;;;2.70;0.60;;;;;;;;;;6069737;23;20311;-92
2023/11/01 11:45:02;;;;;;;1.80;0.80;;;;;;;;;;6071016;23;20163;-92
2023/11/01 11:48:22;;;;;;;5.22;0.73;;;;;;;;;;6070373;23;20172;-92
2023/11/01 11:51:33;;;;;;;2.97;0.90;;;;;;;;;;6070358;23;20557;-93
2023/11/01 11:54:39;;;;;;;2.92;0.70;;;;;;;;;;6069391;23;20183;-92
2023/11/01 11:57:46;;;;;;;3.60;0.80;;;;;;;;;;6070090;23;20159;-92
2023/11/01 12:00:56;;;;;;;1.42;0.70;;;;;;;;;;6070337;23;20175;-92
2023/11/01 12:04:01;;;;;;;2.15;0.65;;;;;;;;;;6071628;23;20179;-93
2023/11/01 12:07:08;;;;;;;2.00;0.63;;;;;;;;;;6071424;23;20175;-91
2023/11/01 12:10:13;;;;;;;2.05;0.63;;;;;;;;;;6070243;23;20216;-90
2023/11/01 12:13:18;;;;;;;2.05;0.70;;;;;;;;;;6072801;23;20255;-91
2023/11/01 12:16:27;;;;;;;4.57;0.70;;;;;;;;;;6053872;23;20220;-92
2023/11/01 12:19:33;;;;;;;4.72;1.25;;;;;;;;;;6070288;23;20248;-90
2023/11/01 12:22:44;;;;;;;2.45;0.90;;;;;;;;;;6053699;23;20699;-91
2023/11/01 12:25:49;;;;;;;1.95;0.70;;;;;;;;;;6050771;23;20196;-93
2023/11/01 12:28:56;;;;;;;2.30;0.60;;;;;;;;;;6069098;23;20171;-92
2023/11/01 12:32:11;;;;;;;2.10;0.65;;;;;;;;;;6070375;23;20179;-93
2023/11/01 12:35:16;;;;;;;3.58;0.70;;;;;;;;;;6071305;23;20171;-92
2023/11/01 12:38:25;;;;;;;3.80;0.60;;;;;;;;;;6070423;23;20194;-90
2023/11/01 12:41:30;;;;;;;0.93;0.60;;;;;;;;;;6055153;23;20194;-91
2023/11/01 12:44:36;;;;;;;4.07;1.02;;;;;;;;;;6071653;23;20167;-91
2023/11/01 12:47:42;;;;;;;2.22;0.70;;;;;;;;;;6069807;23;20171;-91
2023/11/01 12:50:47;;;;;;;3.28;0.90;;;;;;;;;;6069140;23;20171;-92
2023/11/01 12:53:58;;;;;;;4.80;1.08;;;;;;;;;;6070258;23;20175;-90
2023/11/01 12:57:05;;;;;;;3.40;0.75;;;;;;;;;;6071215;23;20171;-91
2023/11/01 13:00:12;;;;;;;3.05;0.70;;;;;;;;;;6070244;23;20194;-92
2023/11/01 13:03:17;;;;;;;1.33;0.63;;;;;;;;;;6053476;23;20170;-92
2023/11/01 13:06:23;;;;;;;2.33;0.80;;;;;;;;;;6072216;23;20212;-91
2023/11/01 13:09:30;;;;;;;6.90;0.80;;;;;;;;;;6074416;23;20478;-91
2023/11/01 13:12:35;;;;;;;1.25;0.60;;;;;;;;;;6069953;23;20240;-92
2023/11/01 13:15:41;;;;;;;2.22;0.60;;;;;;;;;;6069668;23;20224;-91
2023/11/01 13:18:47;;;;;;;4.18;0.47;;;;;;;;;;6070393;23;20261;-91
2023/11/01 13:21:52;;;;;;;3.08;0.60;;;;;;;;;;6070906;23;20175;-92
2023/11/01 13:24:59;;;;;;;3.70;0.80;;;;;;;;;;6056655;23;20170;-89
2023/11/01 13:28:05;;;;;;;2.10;0.65;;;;;;;;;;6072016;23;20171;-92
2023/11/01 13:31:11;;;;;;;2.55;0.70;;;;;;;;;;6055624;23;20225;-90
2023/11/01 13:34:19;;;;;;;2.53;1.00;;;;;;;;;;6060186;23;20175;-94
2023/11/01 13:37:26;;;;;;;109.68;35.80;;;;;;;;;;6074986;23;20185;-94
2023/11/01 13:40:34;;;;;;;22.23;7.88;;;;;;;;;;6074169;23;20227;-91
2023/11/01 13:43:40;;;;;;;4.15;1.80;;;;;;;;;;6074689;23;20171;-93
2023/11/01 13:46:46;;;;;;;7.32;1.80;;;;;;;;;;6072818;23;20549;-93
2023/11/01 13:49:52;;;;;;;2.70;1.30;;;;;;;;;;6057204;23;20196;-94
2023/11/01 13:52:57;;;;;;;3.45;1.40;;;;;;;;;;6054029;23;20252;-93
2023/11/01 13:56:15;;;;;;;1.80;0.75;;;;;;;;;;6072981;23;20256;-91
2023/11/01 13:59:21;;;;;;;4.25;1.30;;;;;;;;;;6076258;23;20194;-92
2023/11/01 14:02:26;;;;;;;2.97;0.85;;;;;;;;;;6076239;23;20197;-93
2023/11/01 14:05:32;;;;;;;5.97;0.80;;;;;;;;;;6074106;23;20283;-92
2023/11/01 14:08:38;;;;;;;4.47;1.40;;;;;;;;;;6072781;23;20150;-93
2023/11/01 14:11:50;;;;;;;3.40;0.98;;;;;;;;;;6071824;23;20275;-92
2023/11/01 14:14:56;;;;;;;4.10;1.30;;;;;;;;;;6074830;23;20179;-91
2023/11/01 14:18:03;;;;;;;2.70;0.98;;;;;;;;;;6071903;23;20171;-92
2023/11/01 14:21:09;;;;;;;2.70;1.05;;;;;;;;;;6070284;23;20187;-93
2023/11/01 14:24:23;;;;;;;53.15;27.23;;;;;;;;;;6076780;23;20164;-91
2023/11/01 15:03:19;;;;;;;3.78;1.27;;;;;;;;;;6072050;23;20215;-92
2023/11/01 15:06:25;;;;;;;5.00;1.50;;;;;;;;;;6101013;23;20170;-93
2023/11/01 15:09:30;;;;;;;5.30;1.52;;;;;;;;;;6083720;23;20167;-92
2023/11/01 15:12:36;;;;;;;8.00;1.45;;;;;;;;;;6084447;23;20251;-93
2023/11/01 15:15:41;;;;;;;3.50;1.10;;;;;;;;;;6083387;23;20178;-92
2023/11/01 15:18:48;;;;;;;3.10;1.45;;;;;;;;;;6083635;23;20162;-94
2023/11/01 15:21:55;;;;;;;2.83;1.17;;;;;;;;;;6084219;23;20182;-92
2023/11/01 15:25:02;;;;;;;2.95;1.33;;;;;;;;;;6086753;23;20178;-94
2023/11/01 15:28:08;;;;;;;4.25;1.00;;;;;;;;;;6089092;23;20162;-93
2023/11/01 15:31:16;;;;;;;4.13;1.15;;;;;;;;;;6086443;23;20175;-92
2023/11/01 15:34:29;;;;;;;5.40;1.60;;;;;;;;;;6098391;23;20246;-91
2023/11/01 15:37:35;;;;;;;2.90;1.33;;;;;;;;;;6084157;23;20183;-92
2023/11/01 15:40:40;;;;;;;3.38;1.48;;;;;;;;;;6081993;23;20198;-92
2023/11/01 15:43:45;;;;;;;4.90;1.60;;;;;;;;;;6080953;23;20250;-90
2023/11/01 15:46:50;;;;;;;3.97;1.67;;;;;;;;;;6081783;23;20169;-90
2023/11/01 15:50:01;;;;;;;6.22;1.52;;;;;;;;;;6087290;23;20158;-91
2023/11/01 15:53:08;;;;;;;8.43;2.00;;;;;;;;;;6081175;23;20307;-89
2023/11/01 15:56:14;;;;;;;4.20;1.73;;;;;;;;;;6081535;23;20207;-92
2023/11/01 15:59:20;;;;;;;4.05;1.33;;;;;;;;;;6081088;23;20179;-91
2023/11/01 16:02:25;;;;;;;4.68;1.30;;;;;;;;;;6086103;23;20246;-90
2023/11/01 16:05:42;;;;;;;4.85;1.40;;;;;;;;;;6089643;23;20175;-92
2023/11/01 16:08:49;;;;;;;9.90;2.10;;;;;;;;;;6087467;23;20170;-91
2023/11/01 16:11:55;;;;;;;5.25;1.70;;;;;;;;;;6087088;23;20203;-91
2023/11/01 16:15:01;;;;;;;4.20;1.70;;;;;;;;;;6103120;23;20231;-91
2023/11/01 16:18:14;;;;;;;5.05;1.77;;;;;;;;;;6089517;23;20182;-91
2023/11/01 16:21:23;;;;;;;5.45;1.33;;;;;;;;;;6086859;23;20166;-93
2023/11/01 16:24:29;;;;;;;5.70;1.80;;;;;;;;;;6084152;23;20206;-91
2023/11/01 16:31:23;;;;;;;12.27;5.90;;;;;;;;;;6081431;23;20178;-91
2023/11/01 16:34:29;;;;;;;6.95;3.33;;;;;;;;;;6080807;23;20179;-91
2023/11/01 16:37:36;;;;;;;4.95;2.78;;;;;;;;;;6079240;23;20182;-92
2023/11/01 16:40:41;;;;;;;6.82;3.22;;;;;;;;;;6079464;23;20764;-91
2023/11/01 16:43:46;;;;;;;7.65;3.38;;;;;;;;;;6081910;23;20218;-93
2023/11/01 16:46:51;;;;;;;4.45;2.60;;;;;;;;;;6080380;23;20174;-90
2023/11/01 16:49:56;;;;;;;7.68;3.08;;;;;;;;;;6080469;23;20222;-89
2023/11/01 16:53:05;;;;;;;9.65;3.75;;;;;;;;;;6080166;23;20166;-91
2023/11/01 16:56:11;;;;;;;8.73;3.10;;;;;;;;;;6083494;23;20176;-92
2023/11/01 16:59:16;;;;;;;7.93;3.20;;;;;;;;;;6081501;23;20211;-91
2023/11/01 17:02:22;;;;;;;7.80;3.15;;;;;;;;;;6080570;23;20242;-91
2023/11/01 17:05:31;;;;;;;8.65;3.78;;;;;;;;;;6081930;23;20166;-92
2023/11/01 17:08:39;;;;;;;7.78;3.08;;;;;;;;;;6085185;23;20170;-93
2023/11/01 20:40:58;;;;;;;18.65;7.07;;;;;;;;;;6057902;23;20218;-90
2023/11/01 20:44:04;;;;;;;16.98;6.07;;;;;;;;;;6083024;23;20499;-90
2023/11/01 20:47:10;;;;;;;17.90;6.55;;;;;;;;;;6080544;23;20178;-91
2023/11/01 20:50:16;;;;;;;17.27;6.57;;;;;;;;;;6081898;23;20171;-90
2023/11/01 20:53:21;;;;;;;17.48;5.47;;;;;;;;;;6079779;23;20223;-93
2023/11/01 20:56:28;;;;;;;19.67;6.03;;;;;;;;;;6095480;23;20228;-91
2023/11/01 20:59:36;;;;;;;13.93;5.38;;;;;;;;;;6080309;23;20178;-91
2023/11/01 21:02:41;;;;;;;14.70;5.82;;;;;;;;;;6100094;23;20484;-92
2023/11/01 21:05:47;;;;;;;12.00;5.30;;;;;;;;;;6083514;23;20190;-93
2023/11/01 21:08:53;;;;;;;14.57;5.43;;;;;;;;;;6080112;23;20183;-92
2023/11/01 21:11:59;;;;;;;11.40;4.95;;;;;;;;;;6079307;23;20174;-94
2023/11/01 21:15:04;;;;;;;10.38;4.75;;;;;;;;;;6079328;23;20170;-90
2023/11/01 21:18:09;;;;;;;9.82;4.57;;;;;;;;;;6082225;23;20259;-94
2023/11/01 21:21:15;;;;;;;9.10;4.18;;;;;;;;;;6082262;23;20338;-90
2023/11/01 21:24:20;;;;;;;12.20;3.65;;;;;;;;;;6080887;23;20182;-91
2023/11/01 21:27:26;;;;;;;9.55;5.07;;;;;;;;;;6079447;23;20178;-92
2023/11/01 21:30:32;;;;;;;80.18;33.55;;;;;;;;;;6079807;23;20169;-90
2023/11/01 21:33:39;;;;;;;25.77;12.32;;;;;;;;;;6080122;23;20163;-91
2023/11/01 21:36:44;;;;;;;29.55;12.85;;;;;;;;;;6080245;23;20170;-91
2023/11/01 21:39:50;;;;;;;8.05;3.30;;;;;;;;;;6080025;23;20217;-92
2023/11/01 21:42:57;;;;;;;12.77;3.45;;;;;;;;;;6079435;23;20777;-90
2023/11/01 21:46:02;;;;;;;8.77;3.50;;;;;;;;;;6080159;23;20236;-90
2023/11/01 21:49:13;;;;;;;8.30;3.45;;;;;;;;;;6079916;23;20179;-91
2023/11/01 21:52:19;;;;;;;12.25;6.78;;;;;;;;;;6098961;23;20200;-91
2023/11/01 21:55:48;;;;;;;10.15;4.90;;;;;;;;;;6078826;23;20290;-92
2023/11/01 21:58:59;;;;;;;14.50;6.65;;;;;;;;;;6079350;23;20170;-91
2023/11/01 22:02:06;;;;;;;7.65;3.17;;;;;;;;;;6078389;23;20203;-92
2023/11/01 22:05:11;;;;;;;12.43;3.35;;;;;;;;;;6079773;23;20171;-92
2023/11/01 22:08:41;;;;;;;10.20;3.75;;;;;;;;;;6080739;23;20174;-92
2023/11/01 22:11:47;;;;;;;6.30;3.08;;;;;;;;;;6079321;23;20211;-91
2023/11/01 22:14:54;;;;;;;7.45;3.30;;;;;;;;;;6077710;23;20187;-92
2023/11/01 22:17:58;;;;;;;9.95;3.38;;;;;;;;;;6078965;23;20174;-91
2023/11/01 22:21:04;;;;;;;9.30;3.83;;;;;;;;;;6079805;23;20361;-92
2023/11/01 22:24:09;;;;;;;17.42;6.50;;;;;;;;;;6080175;23;20170;-90
2023/11/01 22:27:18;;;;;;;20.35;9.73;;;;;;;;;;6082960;23;20171;-90
2023/11/01 22:30:24;;;;;;;13.85;4.00;;;;;;;;;;6080052;23;20197;-90
2023/11/01 22:33:29;;;;;;;8.82;3.50;;;;;;;;;;6080775;23;20163;-92
2023/11/01 22:36:36;;;;;;;30.48;13.00;;;;;;;;;;6082584;23;20183;-90
2023/11/01 22:39:46;;;;;;;66.05;24.02;;;;;;;;;;6082696;23;20202;-94
2023/11/01 22:42:51;;;;;;;12.63;5.05;;;;;;;;;;6100829;23;20167;-91
2023/11/01 22:45:58;;;;;;;13.63;4.47;;;;;;;;;;6083215;23;20174;-92
2023/11/01 22:49:03;;;;;;;20.40;8.35;;;;;;;;;;6081048;23;20173;-92
2023/11/01 22:52:08;;;;;;;19.58;4.47;;;;;;;;;;6080867;23;20174;-91
2023/11/01 22:55:13;;;;;;;17.75;5.43;;;;;;;;;;6081103;23;20174;-92
2023/11/01 22:58:18;;;;;;;15.02;4.28;;;;;;;;;;6080239;23;20227;-92
2023/11/01 23:01:25;;;;;;;18.30;5.65;;;;;;;;;;6079645;23;20194;-91
2023/11/01 23:04:31;;;;;;;10.07;3.75;;;;;;;;;;6080729;23;20170;-91
2023/11/01 23:07:37;;;;;;;8.73;3.50;;;;;;;;;;6080120;23;20174;-92
2023/11/01 23:10:43;;;;;;;12.13;3.67;;;;;;;;;;6079439;23;20167;-90
2023/11/01 23:13:48;;;;;;;6.57;3.63;;;;;;;;;;6080175;23;20179;-92
2023/11/01 23:16:54;;;;;;;7.28;3.45;;;;;;;;;;6078872;23;20194;-93
2023/11/01 23:19:59;;;;;;;20.48;7.45;;;;;;;;;;6078770;23;20169;-91
2023/11/01 23:23:04;;;;;;;11.02;3.50;;;;;;;;;;6077685;23;20222;-93
2023/11/01 23:26:12;;;;;;;10.85;4.10;;;;;;;;;;6080032;23;20178;-91
2023/11/01 23:29:17;;;;;;;11.80;4.68;;;;;;;;;;6081941;23;20199;-91
2023/11/01 23:32:24;;;;;;;11.13;4.25;;;;;;;;;;6083255;23;20179;-91
2023/11/01 23:35:31;;;;;;;13.85;6.63;;;;;;;;;;6081769;23;20215;-90
2023/11/01 23:38:42;;;;;;;14.57;3.88;;;;;;;;;;6078924;23;20287;-94
2023/11/01 23:41:47;;;;;;;35.50;12.10;;;;;;;;;;6076480;23;20576;-91
2023/11/01 23:44:54;;;;;;;21.65;6.85;;;;;;;;;;6081343;23;20187;-92
2023/11/01 23:48:04;;;;;;;10.27;3.33;;;;;;;;;;6081662;23;20207;-92
2023/11/01 23:51:10;;;;;;;8.70;3.03;;;;;;;;;;6076973;23;20170;-90
2023/11/01 23:54:18;;;;;;;4.40;2.80;;;;;;;;;;6078893;23;20174;-92
2023/11/01 23:57:24;;;;;;;9.25;3.53;;;;;;;;;;6079046;23;20174;-92
